KMDD

Midland Airpark

Midland, Texas, USA
METAR KMDD 231155Z AUTO 13005KT 1/4SM FG 13/13 A3017 RMK AO2 T01320132 10135 20132
Observed Flight Rules
Oct-23 @ 11:55 UTC (26 minutes ago)
Wind Visibility Conditions
130° at 5 knots 1/4 miles
  • Fog
Temperatures Readings
Current 13°C / 55°F
Dewpoint 13°C / 55°F
Humidity 100%
Altimeter 30.17" Hg
Pressure 1022 hPa
Elevation 854
METAR KMDD 231155Z AUTO 13005KT 1/4SM FG 13/13 A3017 RMK AO2 T01320132 10135 20132
Observed Flight Rules
Oct-23 @ 11:55 UTC
(26 minutes ago)
Wind Visibility
130° at 5 knots 1/4 miles
Conditions
  • Fog
Temperature Dewpoint
13°C / 55°F 13°C / 55°F
Humidity Altimeter Pressure
100% 30.17" Hg 1022 hPa